Playa Union, Argentina
Current Conditions -  °F | °C
As of 10:00 AM on Sunday 23 Nov 2014 (Local Time) from SAVC Reporting Station
Scattered Clouds Scattered Clouds  
Wind Chill: 64°   Ceiling: Unl
Heat Index: 64°   Visibility: 6mi
Dew Point: 41°   Wind: 16mph
Humidity: 42%   Direction: 290°WNW
Pressure: 29.53"   Gusts: NA
Location:  43.31°S, 65.07°W
Report Text: SAVC 231300Z 29014KT 9999 FEW035 SCT10018/05 Q1000
Loading
Personal Weather Stations






























Interactive Weather Map New forecast layout! Learn more

10-Day Weather Forecast

Advertisements
Track Severe Weather on mobile